createdAt,value
2022-08-11T00:01:13.932Z,24.05
2022-08-11T00:03:51.215Z,23.92
2022-08-11T00:06:27.736Z,24.20
2022-08-11T00:08:57.085Z,23.60
2022-08-11T00:11:34.946Z,24.35
2022-08-11T00:14:05.224Z,23.60
2022-08-11T00:16:33.970Z,23.20
2022-08-11T00:19:05.132Z,24.10
2022-08-11T00:22:04.190Z,24.73
2022-08-11T00:24:34.724Z,24.52
2022-08-11T00:27:22.007Z,23.90
2022-08-11T00:29:55.055Z,24.02
2022-08-11T00:32:23.826Z,23.52
2022-08-11T00:35:54.982Z,23.98
2022-08-11T00:37:49.296Z,23.50
2022-08-11T00:40:24.370Z,23.85
2022-08-11T00:43:05.619Z,23.73
2022-08-11T00:45:56.613Z,22.90
2022-08-11T00:48:29.653Z,23.55
2022-08-11T00:51:10.955Z,22.10
2022-08-11T00:53:49.961Z,23.42
2022-08-11T00:56:58.846Z,22.92
2022-08-11T01:00:04.093Z,22.42
2022-08-11T01:02:53.887Z,22.85
2022-08-11T01:06:05.259Z,22.25
2022-08-11T01:09:02.205Z,21.63
2022-08-11T01:12:20.259Z,21.98
2022-08-11T01:15:25.732Z,23.08
2022-08-11T01:18:30.958Z,22.23
2022-08-11T01:21:58.282Z,22.10
2022-08-11T01:24:59.123Z,22.45
2022-08-11T01:28:00.857Z,22.08
2022-08-11T01:31:02.336Z,23.15
2022-08-11T01:34:19.101Z,22.00
2022-08-11T01:37:15.831Z,23.00
2022-08-11T01:40:31.847Z,22.48
2022-08-11T01:43:37.769Z,22.55
2022-08-11T01:46:12.059Z,22.25
2022-08-11T01:48:45.467Z,23.35
2022-08-11T01:51:21.164Z,23.25
2022-08-11T01:53:58.371Z,23.88
2022-08-11T01:56:39.332Z,22.77
2022-08-11T01:59:15.646Z,22.92
2022-08-11T02:02:00.438Z,22.27
2022-08-11T02:04:35.861Z,22.15
2022-08-11T02:07:12.656Z,22.48
2022-08-11T02:09:52.483Z,23.40
2022-08-11T02:12:42.110Z,22.88
2022-08-11T02:15:26.842Z,22.98
2022-08-11T02:18:05.105Z,22.35
2022-08-11T02:20:59.732Z,21.75
2022-08-11T02:24:07.076Z,22.05
2022-08-11T02:26:38.326Z,22.13
2022-08-11T02:29:15.237Z,21.88
2022-08-11T02:32:25.881Z,22.45
2022-08-11T02:35:03.153Z,21.85
2022-08-11T02:37:43.786Z,22.08
2022-08-11T02:40:21.779Z,21.90
2022-08-11T02:43:10.619Z,21.88
2022-08-11T02:45:55.148Z,22.60
2022-08-11T02:48:55.045Z,22.70
2022-08-11T02:51:36.300Z,21.77
2022-08-11T02:54:12.894Z,21.65
2022-08-11T02:56:52.237Z,21.92
2022-08-11T02:59:54.361Z,21.67
2022-08-11T03:02:33.262Z,23.20
2022-08-11T03:05:09.197Z,22.45
2022-08-11T03:07:52.299Z,23.08
2022-08-11T03:10:24.791Z,22.52
2022-08-11T03:13:15.962Z,23.20
2022-08-11T03:16:08.939Z,23.63
2022-08-11T03:18:43.967Z,23.17
2022-08-11T03:21:21.205Z,23.45
2022-08-11T03:23:57.300Z,22.83
2022-08-11T03:26:30.711Z,23.02
2022-08-11T03:29:07.818Z,22.52
2022-08-11T03:31:46.084Z,22.10
2022-08-11T03:34:17.690Z,23.15
2022-08-11T03:37:16.505Z,23.42
2022-08-11T03:39:59.242Z,23.33
2022-08-11T03:42:33.888Z,22.05
2022-08-11T03:45:16.512Z,23.67
2022-08-11T03:48:03.108Z,24.10
2022-08-11T03:50:55.014Z,23.17
2022-08-11T03:53:40.903Z,22.42
2022-08-11T03:56:43.254Z,22.25
2022-08-11T03:59:54.259Z,22.27
2022-08-11T04:02:57.051Z,21.70
2022-08-11T04:06:14.645Z,22.30
2022-08-11T04:09:27.594Z,22.45
2022-08-11T04:12:17.352Z,22.58
2022-08-11T04:15:37.144Z,22.88
2022-08-11T04:18:32.205Z,22.52
2022-08-11T04:21:22.611Z,23.05
2022-08-11T04:24:38.702Z,22.35
2022-08-11T04:27:39.847Z,21.83
2022-08-11T04:30:13.339Z,21.98
2022-08-11T04:33:12.996Z,22.02
2022-08-11T04:35:53.562Z,21.63
2022-08-11T04:38:50.836Z,21.55
2022-08-11T04:42:01.049Z,20.90
2022-08-11T04:45:21.538Z,20.73
2022-08-11T04:48:22.645Z,19.55
2022-08-11T04:51:26.694Z,20.05
2022-08-11T04:54:28.453Z,20.10
2022-08-11T04:57:21.101Z,20.05
2022-08-11T05:00:23.721Z,19.98
2022-08-11T05:03:29.115Z,18.88
2022-08-11T05:06:30.594Z,19.33
2022-08-11T05:09:35.248Z,19.25
2022-08-11T05:12:22.081Z,19.02
2022-08-11T05:15:10.358Z,18.70
2022-08-11T05:18:12.547Z,19.33
2022-08-11T05:21:05.383Z,19.23
2022-08-11T05:23:54.346Z,18.05
2022-08-11T05:26:48.879Z,17.52
2022-08-11T05:29:59.067Z,17.33
2022-08-11T05:32:50.149Z,19.10
2022-08-11T05:36:00.149Z,16.10
2022-08-11T05:38:35.239Z,16.67
2022-08-11T05:41:21.206Z,16.42
2022-08-11T05:44:20.446Z,15.85
2022-08-11T05:47:10.179Z,16.77
2022-08-11T05:49:57.922Z,16.55
2022-08-11T05:52:46.879Z,15.23
2022-08-11T05:55:52.513Z,16.00
2022-08-11T05:58:39.733Z,15.50
2022-08-11T06:01:12.160Z,16.05
2022-08-11T06:04:03.700Z,16.05
2022-08-11T06:06:32.629Z,14.95
2022-08-11T06:09:01.553Z,15.75
2022-08-11T06:11:43.916Z,15.15
2022-08-11T06:14:14.099Z,15.13
2022-08-11T06:16:43.479Z,14.90
2022-08-11T06:19:14.965Z,15.27
2022-08-11T06:21:48.860Z,15.52
2022-08-11T06:24:17.716Z,15.90
2022-08-11T06:29:47.814Z,15.38
2022-08-11T06:32:17.656Z,15.55
2022-08-11T06:35:05.880Z,15.43
2022-08-11T06:37:45.703Z,15.32
2022-08-11T06:40:27.440Z,14.43
2022-08-11T06:43:02.191Z,14.82
2022-08-11T06:45:35.296Z,15.40
2022-08-11T06:48:06.535Z,14.88
2022-08-11T06:50:53.685Z,16.20
2022-08-11T06:53:22.609Z,13.98
2022-08-11T06:56:09.424Z,12.70
2022-08-11T06:58:57.883Z,15.38
2022-08-11T07:01:38.383Z,13.82
2022-08-11T07:04:09.962Z,10.38
2022-08-11T07:07:11.633Z,10.55
2022-08-11T07:10:32.833Z,10.27
2022-08-11T07:17:42.894Z,10.32
2022-08-11T07:20:31.871Z,10.75
2022-08-11T07:23:20.167Z,14.77
2022-08-11T07:26:10.639Z,10.13
2022-08-11T07:28:56.317Z,11.18
2022-08-11T07:31:31.282Z,11.20
2022-08-11T07:34:18.169Z,7.50
2022-08-11T07:36:52.841Z,9.63
2022-08-11T07:39:28.382Z,10.73
2022-08-11T07:41:59.399Z,9.75
2022-08-11T07:44:35.135Z,9.60
2022-08-11T07:47:23.917Z,8.23
2022-08-11T07:50:11.755Z,9.52
2022-08-11T07:52:41.660Z,6.95
2022-08-11T07:55:16.989Z,7.55
2022-08-11T07:58:17.004Z,14.90
2022-08-11T08:01:21.491Z,7.78
2022-08-11T08:04:13.442Z,8.90
2022-08-11T08:06:59.561Z,8.98
2022-08-11T08:09:47.674Z,10.82
2022-08-11T08:12:34.547Z,13.10
2022-08-11T08:18:26.508Z,9.07
2022-08-11T08:21:12.235Z,8.60
2022-08-11T08:23:45.667Z,8.25
2022-08-11T08:26:48.275Z,8.10
2022-08-11T08:29:40.442Z,8.45
2022-08-11T08:32:15.247Z,10.80
2022-08-11T08:34:44.515Z,10.80
2022-08-11T08:37:15.835Z,10.13
2022-08-11T08:40:02.154Z,9.68
2022-08-11T08:42:44.884Z,9.93
2022-08-11T08:45:18.434Z,11.93
2022-08-11T08:47:53.456Z,10.55
2022-08-11T08:50:46.849Z,9.13
2022-08-11T08:53:17.441Z,10.52
2022-08-11T08:55:47.966Z,8.15
2022-08-11T08:58:20.525Z,11.40
2022-08-11T09:00:52.462Z,10.50
2022-08-11T09:03:41.016Z,8.85
2022-08-11T09:06:09.677Z,7.20
2022-08-11T09:08:40.958Z,10.30
2022-08-11T09:11:26.651Z,8.02
2022-08-11T09:14:04.895Z,11.52
2022-08-11T09:16:38.595Z,8.73
2022-08-11T09:19:08.823Z,9.35
2022-08-11T09:21:49.064Z,4.38
2022-08-11T09:24:36.980Z,12.02
2022-08-11T09:27:09.649Z,10.02
2022-08-11T09:29:39.952Z,6.70
2022-08-11T09:32:08.997Z,8.57
2022-08-11T09:34:40.530Z,6.55
2022-08-11T09:37:55.794Z,6.47
2022-08-11T09:40:33.735Z,9.48
2022-08-11T09:43:23.189Z,6.90
2022-08-11T09:45:54.438Z,5.97
2022-08-11T09:48:24.997Z,9.63
2022-08-11T09:50:56.117Z,6.53
2022-08-11T09:53:36.020Z,5.72
2022-08-11T09:56:30.396Z,7.30
2022-08-11T09:59:01.761Z,7.07
2022-08-11T10:01:34.340Z,7.30
2022-08-11T10:04:07.177Z,6.47
2022-08-11T10:06:56.417Z,10.23
2022-08-11T10:09:27.780Z,9.20
2022-08-11T10:12:03.011Z,7.10
2022-08-11T10:14:53.003Z,7.35
2022-08-11T10:17:24.775Z,7.00
2022-08-11T10:20:05.245Z,9.30
2022-08-11T10:22:54.836Z,8.48
2022-08-11T10:25:40.991Z,8.40
2022-08-11T10:28:28.379Z,5.43
2022-08-11T10:31:18.247Z,7.75
2022-08-11T10:34:04.012Z,5.97
2022-08-11T10:36:34.788Z,6.28
2022-08-11T10:39:09.663Z,5.25
2022-08-11T10:42:08.282Z,6.47
2022-08-11T10:44:39.958Z,4.07
2022-08-11T10:47:30.304Z,5.45
2022-08-11T10:50:21.140Z,7.05
2022-08-11T10:53:12.509Z,5.75
2022-08-11T10:58:50.153Z,3.70
2022-08-11T11:01:27.037Z,7.45
2022-08-11T11:04:04.736Z,4.50
2022-08-11T11:06:50.536Z,9.75
2022-08-11T11:09:23.327Z,30.48
2022-08-11T11:12:12.188Z,7.88
2022-08-11T11:15:01.261Z,7.22
2022-08-11T11:17:55.447Z,3.45
2022-08-11T11:20:34.771Z,4.80
2022-08-11T11:23:17.485Z,3.58
2022-08-11T11:26:10.814Z,5.72
2022-08-11T11:29:14.096Z,4.03
2022-08-11T11:31:54.643Z,7.40
2022-08-11T11:34:53.027Z,3.25
2022-08-11T11:37:23.924Z,6.70
2022-08-11T11:40:00.472Z,7.47
2022-08-11T11:42:31.070Z,8.82
2022-08-11T11:45:23.439Z,5.97
2022-08-11T11:47:55.029Z,8.00
2022-08-11T11:50:31.708Z,7.13
2022-08-11T11:53:03.077Z,5.22
2022-08-11T11:55:33.661Z,5.40
2022-08-11T11:58:19.564Z,8.20
2022-08-11T12:01:06.315Z,5.55
2022-08-11T12:03:35.798Z,9.02
2022-08-11T12:06:04.854Z,5.45
2022-08-11T12:08:33.588Z,5.32
2022-08-11T12:11:27.276Z,8.30
2022-08-11T12:14:10.817Z,4.72
2022-08-11T12:16:45.563Z,9.50
2022-08-11T12:19:21.983Z,4.15
2022-08-11T12:22:15.505Z,5.55
2022-08-11T12:25:04.317Z,9.02
2022-08-11T12:30:36.258Z,6.53
2022-08-11T12:33:05.136Z,6.57
2022-08-11T12:35:38.185Z,6.18
2022-08-11T12:38:12.943Z,4.85
2022-08-11T12:41:16.467Z,5.72
2022-08-11T12:44:37.350Z,4.30
2022-08-11T12:47:11.050Z,6.30
2022-08-11T12:50:06.070Z,4.50
2022-08-11T12:52:54.552Z,4.60
2022-08-11T12:55:40.142Z,6.90
2022-08-11T12:58:19.027Z,7.15
2022-08-11T13:01:06.796Z,3.00
2022-08-11T13:04:09.958Z,7.05
2022-08-11T13:06:43.240Z,4.28
2022-08-11T13:09:18.695Z,6.65
2022-08-11T13:12:05.151Z,4.00
2022-08-11T13:14:35.156Z,5.97
2022-08-11T13:17:40.418Z,5.60
2022-08-11T13:20:14.627Z,3.08
2022-08-11T13:22:46.394Z,5.05
2022-08-11T13:25:16.617Z,4.75
2022-08-11T13:27:48.853Z,4.15
2022-08-11T13:30:40.273Z,7.45
2022-08-11T13:33:17.594Z,6.70
2022-08-11T13:35:50.842Z,4.53
2022-08-11T13:38:23.239Z,2.97
2022-08-11T13:40:55.962Z,5.97
2022-08-11T13:43:25.302Z,7.90
2022-08-11T13:46:14.609Z,5.93
2022-08-11T13:48:47.044Z,3.72
2022-08-11T13:51:35.999Z,6.90
2022-08-11T13:54:09.098Z,6.53
2022-08-11T13:56:40.778Z,6.00
2022-08-11T13:59:12.708Z,4.82
2022-08-11T14:02:19.222Z,4.68
2022-08-11T14:04:40.612Z,5.80
2022-08-11T14:07:15.881Z,7.55
2022-08-11T14:09:45.863Z,5.93
2022-08-11T14:12:34.588Z,6.65
2022-08-11T14:15:08.830Z,6.35
2022-08-11T14:17:48.103Z,5.80
2022-08-11T14:20:40.071Z,5.05
2022-08-11T14:23:11.356Z,5.35
2022-08-11T14:26:02.774Z,5.18
2022-08-11T14:28:42.022Z,7.45
2022-08-11T14:31:15.796Z,4.60
2022-08-11T14:33:58.187Z,6.75
2022-08-11T14:36:43.386Z,7.03
2022-08-11T14:39:27.273Z,6.32
2022-08-11T14:42:19.973Z,6.45
2022-08-11T14:45:16.650Z,7.05
2022-08-11T14:47:50.229Z,5.00
2022-08-11T14:50:27.158Z,6.90
2022-08-11T14:52:59.486Z,6.63
2022-08-11T14:55:48.186Z,9.73
2022-08-11T14:58:21.826Z,8.05
2022-08-11T15:00:54.586Z,4.63
2022-08-11T15:03:27.674Z,5.68
2022-08-11T15:05:58.733Z,5.75
2022-08-11T15:08:48.661Z,5.80
2022-08-11T15:11:41.373Z,6.05
2022-08-11T15:14:11.668Z,8.65
2022-08-11T15:17:01.011Z,4.00
2022-08-11T15:19:37.515Z,6.78
2022-08-11T15:22:28.624Z,7.85
2022-08-11T15:25:11.903Z,5.45
2022-08-11T15:28:01.960Z,4.35
2022-08-11T15:30:56.754Z,7.85
2022-08-11T15:33:47.532Z,3.65
2022-08-11T15:36:37.559Z,5.72
2022-08-11T15:39:26.189Z,7.13
2022-08-11T15:43:01.442Z,5.60
2022-08-11T15:45:50.345Z,5.68
2022-08-11T15:48:46.510Z,4.43
2022-08-11T15:51:25.809Z,7.05
2022-08-11T15:55:04.340Z,6.68
2022-08-11T15:57:39.631Z,7.57
2022-08-11T16:00:34.554Z,5.43
2022-08-11T16:04:06.502Z,6.13
2022-08-11T16:06:19.718Z,11.95
2022-08-11T16:08:54.593Z,7.13
2022-08-11T16:11:23.801Z,4.18
2022-08-11T16:17:47.380Z,6.13
2022-08-11T16:20:24.693Z,12.30
2022-08-11T16:23:06.981Z,7.82
2022-08-11T16:27:01.593Z,5.60
2022-08-11T16:28:34.746Z,6.82
2022-08-11T16:31:22.379Z,6.13
2022-08-11T16:33:53.695Z,3.78
2022-08-11T16:39:51.141Z,5.35
2022-08-11T16:43:08.855Z,5.72
2022-08-11T16:45:43.241Z,5.43
2022-08-11T16:48:33.056Z,3.33
2022-08-11T16:51:07.340Z,5.97
2022-08-11T16:54:03.678Z,6.32
2022-08-11T16:56:37.600Z,7.40
2022-08-11T16:59:20.419Z,5.00
2022-08-11T17:08:57.541Z,4.05
2022-08-11T17:11:55.581Z,10.23
2022-08-11T17:14:38.351Z,5.57
2022-08-11T17:17:09.476Z,6.63
2022-08-11T17:20:40.241Z,6.30
2022-08-11T17:23:00.131Z,5.70
2022-08-11T17:26:03.219Z,4.93
2022-08-11T17:28:46.321Z,5.30
2022-08-11T17:31:39.994Z,4.13
2022-08-11T17:35:09.549Z,5.18
2022-08-11T17:37:44.591Z,4.93
2022-08-11T17:40:33.581Z,6.63
2022-08-11T17:43:22.628Z,5.95
2022-08-11T17:46:13.813Z,6.32
2022-08-11T17:48:47.660Z,3.83
2022-08-11T17:51:35.015Z,8.02
2022-08-11T17:54:49.480Z,5.93
2022-08-11T17:57:51.984Z,6.80
2022-08-11T18:00:20.493Z,4.05
2022-08-11T18:03:09.144Z,8.05
2022-08-11T18:05:43.786Z,5.47
2022-08-11T18:08:35.409Z,2.55
2022-08-11T18:12:07.179Z,4.72
2022-08-11T18:14:31.266Z,5.90
2022-08-11T18:17:17.703Z,4.35
2022-08-11T18:20:07.892Z,2.63
2022-08-11T18:23:01.808Z,6.25
2022-08-11T18:25:56.764Z,9.00
2022-08-11T18:28:56.815Z,5.30
2022-08-11T18:31:44.796Z,3.97
2022-08-11T18:34:35.315Z,5.30
2022-08-11T18:37:30.242Z,3.70
2022-08-11T18:40:19.970Z,4.93
2022-08-11T18:43:09.779Z,3.60
2022-08-11T18:46:07.007Z,4.88
2022-08-11T18:48:55.094Z,6.93
2022-08-11T18:51:42.353Z,6.53
2022-08-11T18:54:31.717Z,4.57
2022-08-11T18:57:22.564Z,5.43
2022-08-11T19:00:12.440Z,2.78
2022-08-11T19:03:00.208Z,5.63
2022-08-11T19:06:32.445Z,3.40
2022-08-11T19:09:04.209Z,5.00
2022-08-11T19:11:53.931Z,8.95
2022-08-11T19:14:41.461Z,5.60
2022-08-11T19:17:43.443Z,5.90
2022-08-11T19:20:34.492Z,5.95
2022-08-11T19:23:27.809Z,6.97
2022-08-11T19:26:17.858Z,4.25
2022-08-11T19:30:07.992Z,6.32
2022-08-11T19:32:18.268Z,5.47
2022-08-11T19:35:06.550Z,6.15
2022-08-11T19:37:54.365Z,5.38
2022-08-11T19:40:41.563Z,10.18
2022-08-11T19:43:29.374Z,6.68
2022-08-11T19:46:20.431Z,5.93
2022-08-11T19:49:10.605Z,7.60
2022-08-11T19:51:59.264Z,6.60
2022-08-11T19:54:46.940Z,7.88
2022-08-11T19:57:39.301Z,7.43
2022-08-11T20:00:30.044Z,10.10
2022-08-11T20:03:19.205Z,8.45
2022-08-11T20:06:05.933Z,6.63
2022-08-11T20:08:56.455Z,7.97
2022-08-11T20:11:45.790Z,5.22
2022-08-11T20:14:31.809Z,4.00
2022-08-11T20:17:18.793Z,8.40
2022-08-11T20:20:07.776Z,9.43
2022-08-11T20:22:53.230Z,4.72
2022-08-11T20:25:42.410Z,8.93
2022-08-11T20:28:33.166Z,7.18
2022-08-11T20:31:18.756Z,5.10
2022-08-11T20:34:05.472Z,5.85
2022-08-11T20:36:55.025Z,6.60
2022-08-11T20:39:43.106Z,5.72
2022-08-11T20:42:31.295Z,6.57
2022-08-11T20:45:23.493Z,7.60
2022-08-11T20:48:15.524Z,7.90
2022-08-11T20:54:13.680Z,6.88
2022-08-11T20:57:00.131Z,6.93
2022-08-11T20:59:50.137Z,4.68
2022-08-11T21:02:44.896Z,4.93
2022-08-11T21:06:08.152Z,5.07
2022-08-11T21:08:38.884Z,8.90
2022-08-11T21:11:30.727Z,5.50
2022-08-11T21:14:17.993Z,6.47
2022-08-11T21:17:27.411Z,6.05
2022-08-11T21:20:20.666Z,7.05
2022-08-11T21:23:14.917Z,6.30
2022-08-11T21:26:14.582Z,7.55
2022-08-11T21:29:04.325Z,6.68
2022-08-11T21:31:51.133Z,9.40
2022-08-11T21:34:40.151Z,5.05
2022-08-11T21:37:27.256Z,6.25
2022-08-11T21:40:17.090Z,7.65
2022-08-11T21:43:05.802Z,8.65
2022-08-11T21:45:55.380Z,5.07
2022-08-11T21:48:44.871Z,6.25
2022-08-11T21:51:31.042Z,7.32
2022-08-11T21:54:17.854Z,6.95
2022-08-11T21:57:05.342Z,7.68
2022-08-11T22:00:00.255Z,4.90
2022-08-11T22:02:50.914Z,6.05
2022-08-11T22:05:40.194Z,8.27
2022-08-11T22:08:26.920Z,6.43
2022-08-11T22:11:12.738Z,9.80
2022-08-11T22:14:06.138Z,6.47
2022-08-11T22:16:53.935Z,8.00
2022-08-11T22:19:42.739Z,8.82
2022-08-11T22:22:30.852Z,5.20
2022-08-11T22:25:18.456Z,7.20
2022-08-11T22:28:04.881Z,9.02
2022-08-11T22:30:50.392Z,5.35
2022-08-11T22:33:37.709Z,9.00
2022-08-11T22:36:36.989Z,8.82
2022-08-11T22:39:25.361Z,6.75
2022-08-11T22:42:10.808Z,7.88
2022-08-11T22:44:56.148Z,7.25
2022-08-11T22:47:43.374Z,6.28
2022-08-11T22:50:29.268Z,10.00
2022-08-11T22:53:17.420Z,6.80
2022-08-11T22:56:03.532Z,5.10
2022-08-11T22:58:50.040Z,8.75
2022-08-11T23:01:36.283Z,6.63
2022-08-11T23:04:22.785Z,7.10
2022-08-11T23:07:09.518Z,8.95
2022-08-11T23:09:57.645Z,8.07
2022-08-11T23:12:45.448Z,7.43
2022-08-11T23:15:33.368Z,6.35
2022-08-11T23:18:21.292Z,5.70
2022-08-11T23:21:07.674Z,5.95
2022-08-11T23:23:55.998Z,10.02
2022-08-11T23:26:44.469Z,6.18
2022-08-11T23:29:30.526Z,4.32
2022-08-11T23:32:16.355Z,8.38
2022-08-11T23:35:40.576Z,7.50
2022-08-11T23:38:12.866Z,7.03
2022-08-11T23:40:58.697Z,5.68
2022-08-11T23:43:45.409Z,7.95
2022-08-11T23:46:30.806Z,11.55
2022-08-11T23:49:20.292Z,7.30
2022-08-11T23:52:07.186Z,6.28
2022-08-11T23:54:53.560Z,10.38
2022-08-11T23:57:47.815Z,7.55
